Time;durP1;ratioP1;P1;durP2;ratioP2;P2;SDS_P1;SDS_P2;PMS_P1;PMS_P2;Temp;Humidity;BMP_temperature;BMP_pressure;BME280_temperature;BME280_humidity;BME280_pressure;Samples;Min_cycle;Max_cycle;Signal;HPM_P1;HPM_P2
2021/08/27 00:00:32;;;;;;;32.90;23.98;;;461.60;2380.80;;;;;;5032029;28;20473;-79
2021/08/27 00:02:58;;;;;;;28.63;22.20;;;461.60;2380.80;;;;;;5032199;28;20126;-80
2021/08/27 00:05:24;;;;;;;29.08;23.33;;;461.60;2380.80;;;;;;5032265;28;20029;-81
2021/08/27 00:07:50;;;;;;;28.92;23.38;;;461.50;2380.80;;;;;;5032255;28;20057;-81
2021/08/27 00:10:16;;;;;;;27.90;21.67;;;461.50;2380.80;;;;;;5032128;28;20453;-79
2021/08/27 00:12:41;;;;;;;30.83;22.98;;;461.50;2380.80;;;;;;5032094;28;20022;-80
2021/08/27 00:15:09;;;;;;;37.63;24.35;;;461.50;2380.80;;;;;;5032052;28;20069;-80
2021/08/27 00:17:35;;;;;;;39.95;24.63;;;487.10;2380.80;;;;;;5032056;28;20029;-82
2021/08/27 00:20:02;;;;;;;47.30;27.70;;;461.50;2380.80;;;;;;5032242;28;20025;-80
2021/08/27 00:22:28;;;;;;;41.38;26.50;;;461.50;2380.80;;;;;;5033483;28;20512;-81
2021/08/27 00:24:55;;;;;;;46.15;27.50;;;461.50;2380.80;;;;;;5037083;28;20025;-81
2021/08/27 00:27:21;;;;;;;42.20;25.33;;;461.50;2380.80;;;;;;5037330;28;20040;-81
2021/08/27 00:29:47;;;;;;;45.63;27.80;;;461.50;2380.80;;;;;;5035037;28;20109;-81
2021/08/27 00:32:13;;;;;;;39.22;23.75;;;461.40;2380.80;;;;;;5035711;28;20100;-80
2021/08/27 00:34:39;;;;;;;47.28;26.35;;;461.40;2380.80;;;;;;5035148;28;20026;-81
2021/08/27 00:37:05;;;;;;;48.72;24.42;;;461.10;2380.80;;;;;;5035676;28;20025;-81
2021/08/27 00:39:32;;;;;;;54.88;26.10;;;461.20;2380.80;;;;;;5035576;28;20377;-81
2021/08/27 00:41:58;;;;;;;46.78;27.17;;;461.10;2380.80;;;;;;5036555;28;20028;-80
2021/08/27 00:44:25;;;;;;;43.83;25.40;;;461.20;2380.80;;;;;;5035370;28;20117;-81
2021/08/27 00:46:51;;;;;;;60.00;26.98;;;461.30;2380.80;;;;;;5036577;28;20469;-80
2021/08/27 00:49:17;;;;;;;53.40;29.38;;;461.20;2380.80;;;;;;5035163;28;20036;-81
2021/08/27 00:51:43;;;;;;;49.65;26.15;;;461.00;2380.80;;;;;;5035291;28;20065;-81
2021/08/27 00:54:09;;;;;;;41.60;24.33;;;461.70;2380.80;;;;;;5035430;28;20072;-79
2021/08/27 00:56:35;;;;;;;36.97;22.05;;;461.30;2380.80;;;;;;5035057;28;20037;-83
2021/08/27 00:59:01;;;;;;;38.13;22.50;;;461.40;2380.80;;;;;;5036583;28;20488;-81
2021/08/27 01:01:28;;;;;;;35.97;21.60;;;461.40;2380.80;;;;;;5035275;28;20108;-80
2021/08/27 01:03:56;;;;;;;41.45;21.63;;;461.40;2380.80;;;;;;5034903;28;20052;-82
2021/08/27 01:06:31;;;;;;;39.35;21.25;;;461.30;2380.80;;;;;;5035204;28;20041;-80
2021/08/27 01:09:08;;;;;;;38.67;21.25;;;461.40;2380.80;;;;;;5036312;28;20040;-82
2021/08/27 01:11:45;;;;;;;41.97;20.77;;;461.20;2380.80;;;;;;5035925;28;20026;-79
2021/08/27 01:14:17;;;;;;;46.45;20.45;;;461.20;2380.80;;;;;;5035125;28;20033;-80
2021/08/27 01:17:08;;;;;;;33.92;20.38;;;461.10;2380.80;;;;;;5035991;28;20032;-81
2021/08/27 01:19:42;;;;;;;32.15;19.70;;;461.20;2380.80;;;;;;5034972;28;20061;-81
2021/08/27 01:22:27;;;;;;;37.72;18.98;;;461.20;2380.80;;;;;;5034782;28;20065;-80
2021/08/27 01:24:55;;;;;;;30.38;18.70;;;461.20;2380.80;;;;;;5034629;28;20560;-83
2021/08/27 01:27:24;;;;;;;30.10;17.80;;;461.30;2380.80;;;;;;5035029;28;20060;-80
2021/08/27 01:30:09;;;;;;;30.27;18.48;;;461.30;2380.80;;;;;;5034583;28;20132;-81
2021/08/27 01:33:06;;;;;;;28.00;18.75;;;461.30;2380.80;;;;;;5034584;28;20071;-81
2021/08/27 01:35:34;;;;;;;31.33;19.95;;;461.40;2380.80;;;;;;5035116;28;20420;-81
2021/08/27 01:38:05;;;;;;;25.40;18.17;;;461.30;2380.80;;;;;;5034234;28;20025;-81
2021/08/27 01:40:32;;;;;;;41.37;20.23;;;461.30;2380.80;;;;;;5034503;28;20026;-81
2021/08/27 01:43:00;;;;;;;25.98;17.90;;;461.30;2380.80;;;;;;5034356;28;20029;-81
2021/08/27 01:45:27;;;;;;;31.67;18.80;;;461.20;2380.80;;;;;;5034097;28;20037;-79
2021/08/27 01:47:53;;;;;;;44.17;19.25;;;461.10;2380.80;;;;;;5034026;28;20038;-80
2021/08/27 01:50:21;;;;;;;33.17;19.10;;;461.10;2380.80;;;;;;5035497;28;20084;-80
2021/08/27 01:52:49;;;;;;;31.98;18.00;;;461.00;2380.80;;;;;;5034897;28;20033;-82
2021/08/27 01:55:15;;;;;;;51.28;20.60;;;461.10;2380.80;;;;;;5034088;28;20107;-82
2021/08/27 01:57:43;;;;;;;42.55;20.27;;;460.80;2380.80;;;;;;5033937;28;20029;-81
2021/08/27 02:00:10;;;;;;;31.40;18.05;;;461.00;2380.80;;;;;;5034972;28;20030;-81
2021/08/27 02:02:38;;;;;;;45.88;20.65;;;461.00;2380.80;;;;;;5035003;28;20080;-80
2021/08/27 02:05:06;;;;;;;48.53;20.23;;;460.80;2380.80;;;;;;5033914;28;20392;-82
2021/08/27 02:07:32;;;;;;;44.15;19.75;;;436.10;2355.20;;;;;;5033631;28;20032;-82
2021/08/27 02:09:58;;;;;;;38.47;17.83;;;436.00;2355.20;;;;;;5033950;28;20032;-80
2021/08/27 02:12:26;;;;;;;39.65;17.17;;;436.10;2355.20;;;;;;5033814;28;20025;-81
2021/08/27 02:14:55;;;;;;;41.25;18.42;;;460.80;2380.80;;;;;;5033459;28;20099;-80
2021/08/27 02:17:23;;;;;;;32.20;18.92;;;460.90;2380.80;;;;;;5033686;28;20465;-79
2021/08/27 02:19:49;;;;;;;49.25;20.20;;;461.00;2380.80;;;;;;5033400;28;20469;-81
2021/08/27 02:22:17;;;;;;;41.70;16.88;;;460.80;2380.80;;;;;;5033597;28;20061;-80
2021/08/27 02:25:13;;;;;;;30.75;16.63;;;461.00;2380.80;;;;;;5033584;28;20029;-82
2021/08/27 02:27:40;;;;;;;30.95;15.70;;;461.10;2380.80;;;;;;5030983;28;20046;-82
2021/08/27 02:30:07;;;;;;;34.78;18.77;;;461.10;2380.80;;;;;;5033354;28;20049;-82
2021/08/27 02:32:34;;;;;;;38.03;18.33;;;460.90;2380.80;;;;;;5034499;28;20021;-82
2021/08/27 02:35:02;;;;;;;53.58;18.90;;;461.10;2380.80;;;;;;5033288;28;20026;-80
2021/08/27 02:37:35;;;;;;;34.75;18.73;;;460.80;2380.80;;;;;;5034537;28;20083;-81
2021/08/27 02:40:02;;;;;;;;;;;460.90;2380.80;;;;;;5033595;28;20025;-81
2021/08/27 02:42:31;;;;;;;34.38;16.83;;;461.00;2380.80;;;;;;5033001;28;19911;-82
2021/08/27 02:44:57;;;;;;;33.72;15.80;;;460.90;2380.80;;;;;;5032802;28;20164;-82
2021/08/27 02:47:24;;;;;;;36.75;15.80;;;461.10;2380.80;;;;;;5033922;28;20372;-81
2021/08/27 02:49:51;;;;;;;28.30;16.52;;;461.20;2380.80;;;;;;5032750;28;20036;-81
2021/08/27 02:52:38;;;;;;;27.23;15.18;;;461.20;2380.80;;;;;;5033091;28;20049;-81
2021/08/27 02:55:12;;;;;;;29.88;16.42;;;461.30;2380.80;;;;;;5034112;28;20026;-81
2021/08/27 02:57:53;;;;;;;31.27;18.33;;;461.20;2380.80;;;;;;5033101;28;20060;-81
2021/08/27 03:00:20;;;;;;;35.42;18.65;;;461.10;2380.80;;;;;;5033060;28;20041;-80
2021/08/27 03:02:47;;;;;;;26.70;16.90;;;460.90;2380.80;;;;;;5033917;28;20479;-81
2021/08/27 03:05:24;;;;;;;47.10;17.67;;;460.90;2380.80;;;;;;5033926;28;20116;-81
2021/08/27 03:08:03;;;;;;;27.25;17.40;;;460.80;2380.80;;;;;;5032947;28;20021;-80
2021/08/27 03:10:34;;;;;;;33.85;19.02;;;460.80;2380.80;;;;;;5032613;28;20477;-81
2021/08/27 03:13:11;;;;;;;21.88;16.17;;;436.10;2355.20;;;;;;5032882;28;20071;-80
2021/08/27 03:15:49;;;;;;;30.40;15.98;;;460.80;2380.80;;;;;;5032576;28;20034;-81
2021/08/27 03:18:44;;;;;;;23.60;14.80;;;461.00;2380.80;;;;;;5033897;28;20110;-79
2021/08/27 03:21:38;;;;;;;22.85;16.83;;;461.00;2380.80;;;;;;5032757;28;20385;-81
2021/08/27 03:24:22;;;;;;;26.35;17.27;;;461.00;2380.80;;;;;;5028834;28;20033;-82
2021/08/27 03:26:55;;;;;;;30.83;16.85;;;461.10;2380.80;;;;;;5032582;28;20033;-81
2021/08/27 03:29:22;;;;;;;23.20;14.88;;;461.00;2380.80;;;;;;5032262;28;20072;-83
2021/08/27 03:31:49;;;;;;;22.13;14.35;;;461.00;2380.80;;;;;;5032223;28;20472;-81
2021/08/27 03:34:16;;;;;;;22.30;15.52;;;461.00;2380.80;;;;;;5032611;28;20385;-81
2021/08/27 03:36:42;;;;;;;24.17;14.23;;;461.10;2380.80;;;;;;5032393;28;20461;-82
2021/08/27 03:39:08;;;;;;;24.35;15.27;;;461.10;2380.80;;;;;;5032343;28;20021;-82
2021/08/27 03:41:37;;;;;;;23.23;14.73;;;461.00;2380.80;;;;;;5032432;28;20029;-80
2021/08/27 03:44:05;;;;;;;21.38;14.20;;;460.90;2380.80;;;;;;5032232;28;20030;-79
2021/08/27 03:46:31;;;;;;;20.98;14.68;;;460.80;2380.80;;;;;;5033290;28;20037;-79
2021/08/27 03:48:57;;;;;;;19.95;13.57;;;460.80;2380.80;;;;;;5032428;28;20025;-81
2021/08/27 03:51:24;;;;;;;23.90;14.65;;;460.80;2380.80;;;;;;5032174;28;20458;-81
2021/08/27 03:53:52;;;;;;;34.78;15.85;;;460.80;2380.80;;;;;;5032271;28;20021;-84
2021/08/27 03:56:18;;;;;;;36.20;17.35;;;435.90;2355.20;;;;;;5032326;28;20613;-79
2021/08/27 03:58:47;;;;;;;28.05;17.33;;;435.90;2355.20;;;;;;5034976;28;20053;-80
2021/08/27 04:01:13;;;;;;;28.15;17.23;;;435.90;2355.20;;;;;;5037576;28;20029;-80
2021/08/27 04:03:40;;;;;;;32.30;18.92;;;436.10;2355.20;;;;;;5036179;28;20465;-81
2021/08/27 04:06:08;;;;;;;47.25;19.58;;;436.00;2355.20;;;;;;5035812;28;20033;-82
2021/08/27 04:08:36;;;;;;;31.70;18.15;;;435.90;2355.20;;;;;;5036125;28;20091;-83
2021/08/27 04:11:04;;;;;;;39.42;19.48;;;435.90;2355.20;;;;;;5037037;28;20389;-81
2021/08/27 04:13:29;;;;;;;26.55;17.08;;;435.80;2355.20;;;;;;5035846;28;20025;-78
2021/08/27 04:15:55;;;;;;;28.67;17.33;;;435.90;2355.20;;;;;;5037271;28;20385;-80
2021/08/27 04:18:21;;;;;;;33.03;17.55;;;435.90;2355.20;;;;;;5035519;28;20094;-80
2021/08/27 04:20:47;;;;;;;33.33;18.00;;;436.00;2355.20;;;;;;5035651;28;20057;-80
2021/08/27 04:23:13;;;;;;;22.30;14.48;;;436.10;2355.20;;;;;;5035950;28;20523;-80
2021/08/27 04:25:39;;;;;;;21.58;13.40;;;460.80;2380.80;;;;;;5035487;28;20125;-79
2021/08/27 04:28:05;;;;;;;23.38;15.50;;;460.80;2380.80;;;;;;5035656;28;20116;-81
2021/08/27 04:30:32;;;;;;;23.33;15.23;;;460.80;2380.80;;;;;;5035774;28;20032;-81
2021/08/27 04:32:58;;;;;;;19.55;13.15;;;460.80;2380.80;;;;;;5035469;28;20035;-81
2021/08/27 04:35:24;;;;;;;24.30;12.75;;;436.10;2355.20;;;;;;5035571;28;20116;-81
2021/08/27 04:37:49;;;;;;;26.95;14.40;;;436.10;2355.20;;;;;;5035602;28;20026;-80
2021/08/27 04:40:15;;;;;;;22.95;13.43;;;436.10;2355.20;;;;;;5035011;28;20030;-81
2021/08/27 04:42:41;;;;;;;23.35;13.45;;;436.10;2355.20;;;;;;5035556;28;20022;-80
2021/08/27 04:45:08;;;;;;;27.02;16.17;;;436.10;2355.20;;;;;;5036626;28;20029;-82
2021/08/27 04:47:34;;;;;;;32.13;18.52;;;460.80;2380.80;;;;;;5035214;28;20064;-81
2021/08/27 04:50:00;;;;;;;42.83;20.05;;;436.00;2355.20;;;;;;5035384;28;20469;-81
2021/08/27 04:52:25;;;;;;;33.67;17.52;;;436.10;2355.20;;;;;;5035395;28;20021;-82
2021/08/27 04:54:51;;;;;;;41.25;19.80;;;460.80;2380.80;;;;;;5035127;28;20037;-80
2021/08/27 04:57:17;;;;;;;31.65;16.30;;;436.10;2355.20;;;;;;5036522;28;20094;-79
2021/08/27 04:59:45;;;;;;;27.17;16.17;;;436.10;2355.20;;;;;;5035146;28;20532;-80
2021/08/27 05:02:12;;;;;;;21.33;13.02;;;436.10;2355.20;;;;;;5035008;28;20064;-80
2021/08/27 05:04:38;;;;;;;17.65;12.40;;;460.80;2380.80;;;;;;5035087;28;20034;-80
2021/08/27 05:07:04;;;;;;;19.33;11.60;;;460.80;2380.80;;;;;;5035032;28;20151;-81
2021/08/27 05:09:30;;;;;;;12.85;10.13;;;436.10;2355.20;;;;;;5034570;28;20480;-80
2021/08/27 05:11:56;;;;;;;16.08;11.35;;;436.00;2355.20;;;;;;5034875;28;20030;-79
2021/08/27 05:14:22;;;;;;;13.13;10.48;;;460.90;2380.80;;;;;;5034967;28;20028;-83
2021/08/27 05:16:48;;;;;;;13.00;10.45;;;461.00;2380.80;;;;;;5034536;28;20389;-82
2021/08/27 05:19:14;;;;;;;23.30;12.90;;;461.10;2380.80;;;;;;5034795;28;20068;-82
2021/08/27 05:21:40;;;;;;;35.58;19.75;;;460.80;2380.80;;;;;;5034438;28;20468;-79
2021/08/27 05:24:06;;;;;;;50.85;27.75;;;436.10;2355.20;;;;;;5034852;28;20025;-81
2021/08/27 05:26:33;;;;;;;40.65;27.00;;;460.80;2380.80;;;;;;5034618;28;20029;-79
2021/08/27 05:28:59;;;;;;;43.40;24.50;;;436.10;2355.20;;;;;;5035925;28;20062;-82
2021/08/27 05:31:25;;;;;;;47.13;20.00;;;460.80;2380.80;;;;;;5034545;28;20033;-80
2021/08/27 05:33:51;;;;;;;35.05;19.52;;;436.00;2355.20;;;;;;5034614;28;20062;-80
2021/08/27 05:36:17;;;;;;;31.77;19.60;;;435.90;2355.20;;;;;;5034236;28;20042;-78
2021/08/27 05:38:43;;;;;;;40.33;20.13;;;435.90;2355.20;;;;;;5034494;28;20381;-79
2021/08/27 05:41:09;;;;;;;29.10;18.25;;;435.70;2355.20;;;;;;5035908;28;20034;-80
2021/08/27 05:43:35;;;;;;;29.50;19.05;;;435.80;2355.20;;;;;;5034180;28;20164;-81
2021/08/27 05:46:02;;;;;;;30.88;19.35;;;436.00;2355.20;;;;;;5035743;28;20034;-80
2021/08/27 05:48:28;;;;;;;34.28;21.67;;;436.10;2355.20;;;;;;5034252;28;20033;-80
2021/08/27 05:50:54;;;;;;;34.38;23.15;;;460.80;2380.80;;;;;;5033934;28;20029;-82
2021/08/27 05:53:20;;;;;;;41.47;23.33;;;460.90;2380.80;;;;;;5034211;28;20424;-82
2021/08/27 05:55:46;;;;;;;39.53;21.45;;;436.10;2355.20;;;;;;5034145;28;20080;-80
2021/08/27 05:58:11;;;;;;;30.88;21.10;;;460.80;2380.80;;;;;;5033856;28;20056;-82
2021/08/27 06:00:37;;;;;;;37.60;23.20;;;460.90;2380.80;;;;;;5034021;28;20022;-80
2021/08/27 06:03:03;;;;;;;34.88;22.98;;;461.10;2380.80;;;;;;5035004;28;20029;-82
2021/08/27 06:05:29;;;;;;;32.17;21.55;;;461.10;2380.80;;;;;;5033632;28;20036;-80
2021/08/27 06:07:55;;;;;;;34.30;21.02;;;461.10;2380.80;;;;;;5034039;28;20389;-80
2021/08/27 06:10:21;;;;;;;31.75;19.77;;;461.00;2380.80;;;;;;5034010;28;20036;-82
2021/08/27 06:12:47;;;;;;;28.48;20.30;;;461.20;2380.80;;;;;;5033666;28;20113;-82
2021/08/27 06:15:14;;;;;;;32.83;21.30;;;461.30;2380.80;;;;;;5035249;28;20104;-80
2021/08/27 06:17:40;;;;;;;31.65;20.60;;;461.40;2380.80;;;;;;5034697;28;20515;-82
2021/08/27 06:20:07;;;;;;;30.55;20.92;;;486.70;2380.80;;;;;;5033109;28;20025;-81
2021/08/27 06:22:33;;;;;;;31.90;20.30;;;461.10;2380.80;;;;;;5033686;28;20124;-83
2021/08/27 06:24:59;;;;;;;31.50;22.25;;;461.10;2380.80;;;;;;5033306;28;20029;-80
2021/08/27 06:27:25;;;;;;;36.47;22.88;;;461.10;2380.80;;;;;;5033661;28;20465;-79
2021/08/27 06:29:51;;;;;;;37.60;23.15;;;461.20;2380.80;;;;;;5033393;28;20055;-83
2021/08/27 06:32:17;;;;;;;32.08;21.13;;;461.20;2380.80;;;;;;5034739;28;20026;-83
2021/08/27 06:34:43;;;;;;;31.05;20.95;;;461.20;2380.80;;;;;;5033469;28;20025;-83
2021/08/27 06:37:09;;;;;;;28.50;19.90;;;461.40;2380.80;;;;;;5033459;28;20071;-80
2021/08/27 06:39:35;;;;;;;30.88;20.75;;;461.50;2380.80;;;;;;5032990;28;20445;-80
2021/08/27 06:42:01;;;;;;;33.70;21.75;;;461.50;2380.80;;;;;;5034559;28;20021;-81
2021/08/27 06:44:27;;;;;;;30.10;21.90;;;461.60;2380.80;;;;;;5033324;28;20381;-82
2021/08/27 06:46:53;;;;;;;28.67;20.70;;;461.60;2380.80;;;;;;5034105;28;20063;-80
2021/08/27 06:49:19;;;;;;;27.27;22.08;;;461.60;2380.80;;;;;;5034465;28;20036;-81
2021/08/27 06:51:45;;;;;;;34.28;23.23;;;461.60;2380.80;;;;;;5034324;28;20385;-80
2021/08/27 06:54:10;;;;;;;35.78;24.27;;;461.70;2380.80;;;;;;5034122;28;20072;-83
2021/08/27 06:56:36;;;;;;;38.80;26.65;;;461.60;2380.80;;;;;;5033201;28;20381;-81
2021/08/27 06:59:02;;;;;;;36.08;25.23;;;461.60;2380.80;;;;;;5033100;28;20065;-80
2021/08/27 07:01:28;;;;;;;35.17;24.20;;;461.60;2380.80;;;;;;5032682;28;20026;-82
2021/08/27 07:03:54;;;;;;;32.95;23.52;;;461.60;2380.80;;;;;;5032910;28;20026;-81
2021/08/27 07:06:20;;;;;;;34.03;23.92;;;461.70;2380.80;;;;;;5034216;28;20033;-81
2021/08/27 07:08:47;;;;;;;37.03;26.27;;;486.40;2380.80;;;;;;5032584;28;20032;-80
2021/08/27 07:11:15;;;;;;;34.33;25.05;;;486.40;2380.80;;;;;;5032827;28;20031;-80
2021/08/27 07:13:45;;;;;;;36.33;25.35;;;486.60;2380.80;;;;;;5032681;28;20033;-82
2021/08/27 07:16:12;;;;;;;38.25;26.77;;;486.80;2380.80;;;;;;5033685;28;20469;-80
2021/08/27 07:18:40;;;;;;;40.03;25.92;;;486.80;2380.80;;;;;;5032706;28;20037;-81
2021/08/27 07:21:07;;;;;;;41.97;25.48;;;486.90;2380.80;;;;;;5032379;28;20026;-81
2021/08/27 07:23:33;;;;;;;40.20;27.15;;;487.10;2380.80;;;;;;5032757;28;20025;-79
2021/08/27 07:25:59;;;;;;;38.20;25.45;;;487.10;2380.80;;;;;;5032626;28;20047;-82
2021/08/27 07:28:25;;;;;;;32.60;24.75;;;487.10;2380.80;;;;;;5032087;28;20056;-80
2021/08/27 07:30:50;;;;;;;34.60;24.08;;;487.20;2380.80;;;;;;5032473;28;20029;-78
2021/08/27 07:33:16;;;;;;;30.40;22.85;;;512.00;2380.80;;;;;;5032600;28;20487;-80
2021/08/27 07:35:42;;;;;;;29.75;22.67;;;512.10;2380.80;;;;;;5032288;28;20038;-80
2021/08/27 07:38:08;;;;;;;35.45;24.30;;;512.10;2380.80;;;;;;5032498;28;20385;-81
2021/08/27 07:40:33;;;;;;;39.33;26.38;;;512.20;2380.80;;;;;;5033474;28;20021;-79
2021/08/27 07:43:01;;;;;;;36.47;25.65;;;512.40;2380.80;;;;;;5032138;28;20112;-82
2021/08/27 07:45:27;;;;;;;32.92;25.70;;;512.40;2380.80;;;;;;5032332;28;20069;-80
2021/08/27 07:47:53;;;;;;;31.85;25.15;;;512.30;2380.80;;;;;;5032407;28;20029;-79
2021/08/27 07:50:19;;;;;;;31.98;25.10;;;512.40;2380.80;;;;;;5031985;28;20430;-81
2021/08/27 07:52:44;;;;;;;35.42;26.98;;;512.40;2380.80;;;;;;5032319;28;20393;-79
2021/08/27 07:55:11;;;;;;;38.53;26.45;;;512.60;2380.80;;;;;;5032376;28;20030;-80
2021/08/27 07:57:43;;;;;;;31.42;24.40;;;512.70;2380.80;;;;;;5033400;28;20033;-80
2021/08/27 08:00:10;;;;;;;;;;;512.90;2380.80;;;;;;5032713;28;20053;-81
2021/08/27 08:02:36;;;;;;;31.92;24.50;;;512.80;2380.80;;;;;;5032041;28;20329;-80
2021/08/27 08:05:02;;;;;;;31.38;23.90;;;537.70;2406.40;;;;;;5032327;28;20026;-80
2021/08/27 08:07:28;;;;;;;26.60;21.58;;;537.80;2406.40;;;;;;5032201;28;20044;-79
2021/08/27 08:09:54;;;;;;;29.75;22.90;;;538.00;2406.40;;;;;;5031924;28;20030;-79
2021/08/27 08:12:19;;;;;;;29.75;22.33;;;538.10;2406.40;;;;;;5032153;28;20025;-78
2021/08/27 08:14:45;;;;;;;30.60;24.10;;;538.10;2406.40;;;;;;5032975;28;20469;-77
2021/08/27 08:17:11;;;;;;;29.75;22.00;;;538.40;2406.40;;;;;;5033053;28;20036;-81
2021/08/27 08:19:37;;;;;;;30.35;22.38;;;538.50;2406.40;;;;;;5033138;28;20100;-78
2021/08/27 08:22:03;;;;;;;29.77;23.73;;;538.50;2406.40;;;;;;5031910;28;20025;-77
2021/08/27 08:24:29;;;;;;;28.17;22.63;;;563.30;2432.00;;;;;;5032925;28;20057;-79
2021/08/27 08:26:55;;;;;;;37.72;23.05;;;563.50;2432.00;;;;;;5032829;28;20065;-76
2021/08/27 08:29:21;;;;;;;29.50;22.95;;;563.60;2432.00;;;;;;5031736;28;20141;-78
2021/08/27 08:31:46;;;;;;;31.40;22.48;;;563.60;2432.00;;;;;;5031249;28;20026;-77
2021/08/27 08:34:12;;;;;;;28.05;21.77;;;563.70;2432.00;;;;;;5031394;28;20440;-75
2021/08/27 08:36:39;;;;;;;24.27;21.25;;;563.90;2432.00;;;;;;5031392;28;20721;-76
2021/08/27 08:39:05;;;;;;;30.23;23.90;;;564.00;2432.00;;;;;;5032062;28;20017;-77
2021/08/27 08:41:31;;;;;;;33.17;23.73;;;588.80;2432.00;;;;;;5033062;28;20035;-76
2021/08/27 08:43:57;;;;;;;31.17;20.75;;;588.90;2432.00;;;;;;5032742;28;20018;-77
2021/08/27 08:46:23;;;;;;;27.40;21.38;;;589.20;2432.00;;;;;;5034504;28;20029;-75
2021/08/27 08:48:51;;;;;;;27.73;20.70;;;589.40;2432.00;;;;;;5034961;28;20038;-77
2021/08/27 08:51:18;;;;;;;29.13;19.42;;;589.60;2432.00;;;;;;5035794;28;20453;-74
2021/08/27 08:53:49;;;;;;;26.77;20.02;;;589.70;2432.00;;;;;;5035423;28;20358;-76
2021/08/27 08:56:16;;;;;;;29.73;20.33;;;589.70;2432.00;;;;;;5036253;28;20053;-76
2021/08/27 08:58:43;;;;;;;20.98;18.42;;;589.70;2432.00;;;;;;5035294;28;20023;-77
2021/08/27 09:01:16;;;;;;;30.38;19.42;;;589.70;2432.00;;;;;;5034368;28;20108;-76
2021/08/27 09:03:42;;;;;;;25.33;18.20;;;614.50;2432.00;;;;;;5034684;28;20045;-75
2021/08/27 09:06:08;;;;;;;27.30;18.58;;;614.60;2432.00;;;;;;5035339;28;20056;-76
2021/08/27 09:08:37;;;;;;;22.23;17.50;;;614.80;2432.00;;;;;;5034459;28;20477;-75
2021/08/27 09:11:20;;;;;;;33.42;16.77;;;615.00;2432.00;;;;;;5034440;28;20056;-78
2021/08/27 09:13:48;;;;;;;18.65;15.10;;;615.00;2432.00;;;;;;5033395;28;20362;-76
2021/08/27 09:16:14;;;;;;;17.60;14.45;;;615.10;2432.00;;;;;;5031833;28;20108;-76
2021/08/27 09:18:46;;;;;;;17.52;12.48;;;615.30;2432.00;;;;;;5035329;28;20056;-77
2021/08/27 09:21:36;;;;;;;13.40;8.40;;;615.30;2432.00;;;;;;5034258;28;20017;-79
2021/08/27 09:24:15;;;;;;;9.45;7.30;;;640.20;2432.00;;;;;;5033021;28;20784;-78
2021/08/27 09:26:43;;;;;;;9.57;6.30;;;640.40;2432.00;;;;;;5035554;28;20036;-77
2021/08/27 09:29:09;;;;;;;7.00;5.32;;;640.50;2432.00;;;;;;5035764;28;20049;-78
2021/08/27 09:31:38;;;;;;;8.55;7.28;;;640.50;2432.00;;;;;;5035408;28;20547;-79
2021/08/27 09:34:05;;;;;;;10.10;6.18;;;640.70;2432.00;;;;;;5034466;28;20029;-78
2021/08/27 09:36:32;;;;;;;8.98;4.97;;;665.60;2432.00;;;;;;5034514;28;20488;-78
2021/08/27 09:39:11;;;;;;;10.30;6.55;;;665.70;2432.00;;;;;;5035628;28;20072;-79
2021/08/27 09:41:37;;;;;;;12.95;8.40;;;665.90;2432.00;;;;;;5034087;28;20022;-78
2021/08/27 09:44:03;;;;;;;9.05;5.88;;;666.00;2432.00;;;;;;5033649;28;20021;-79
2021/08/27 09:46:31;;;;;;;6.65;4.82;;;666.20;2432.00;;;;;;5033303;28;20408;-79
2021/08/27 09:48:58;;;;;;;7.63;6.13;;;666.20;2432.00;;;;;;5031528;28;20017;-81
2021/08/27 09:51:47;;;;;;;10.05;6.38;;;666.50;2432.00;;;;;;5033421;28;20029;-78
2021/08/27 09:54:27;;;;;;;7.15;5.00;;;691.30;2432.00;;;;;;5033288;28;20358;-79
2021/08/27 09:56:58;;;;;;;8.02;4.82;;;691.40;2432.00;;;;;;5033396;28;20113;-78
2021/08/27 09:59:36;;;;;;;6.72;4.20;;;691.70;2432.00;;;;;;5033650;28;20056;-78
2021/08/27 10:02:04;;;;;;;15.07;6.03;;;691.70;2432.00;;;;;;5033993;28;20366;-79
2021/08/27 10:04:31;;;;;;;6.57;4.15;;;691.90;2432.00;;;;;;5034009;28;20432;-79
2021/08/27 10:06:57;;;;;;;11.15;4.97;;;692.00;2432.00;;;;;;5033570;28;20065;-78
2021/08/27 10:09:23;;;;;;;9.63;5.53;;;692.00;2432.00;;;;;;5034987;28;20022;-78
2021/08/27 10:11:57;;;;;;;6.47;4.70;;;716.90;2432.00;;;;;;5033779;28;20029;-77
2021/08/27 10:14:23;;;;;;;12.73;5.10;;;717.00;2432.00;;;;;;5033493;28;20096;-79
2021/08/27 10:16:50;;;;;;;6.25;4.50;;;717.20;2432.00;;;;;;5034430;28;20041;-79
2021/08/27 10:19:16;;;;;;;6.53;4.70;;;717.30;2406.40;;;;;;5033093;28;20029;-79
2021/08/27 10:21:42;;;;;;;6.50;4.78;;;717.40;2406.40;;;;;;5033247;28;20033;-77
2021/08/27 10:24:07;;;;;;;6.80;4.95;;;717.50;2406.40;;;;;;5034513;28;20427;-77
2021/08/27 10:26:39;;;;;;;9.25;5.10;;;717.60;2406.40;;;;;;5033015;28;20040;-76
2021/08/27 10:29:06;;;;;;;6.55;4.80;;;717.70;2355.20;;;;;;5033263;28;20053;-77
2021/08/27 10:31:42;;;;;;;6.78;5.25;;;742.40;2432.00;;;;;;5033132;28;20030;-77
2021/08/27 10:34:09;;;;;;;8.63;5.07;;;742.50;2380.80;;;;;;5033021;28;20461;-77
2021/08/27 10:36:35;;;;;;;7.13;4.57;;;742.60;2329.60;;;;;;5033302;28;20030;-77
2021/08/27 10:39:02;;;;;;;9.60;5.45;;;742.80;2355.20;;;;;;5033142;28;20052;-78
2021/08/27 10:41:35;;;;;;;7.32;4.65;;;742.90;2278.40;;;;;;5032958;28;20051;-78
2021/08/27 10:44:06;;;;;;;7.35;5.63;;;743.00;2227.20;;;;;;5033353;28;20063;-79
2021/08/27 10:46:44;;;;;;;7.10;4.80;;;743.10;2227.20;;;;;;5032744;28;20044;-78
2021/08/27 10:49:12;;;;;;;8.68;5.03;;;743.30;2252.80;;;;;;5034268;28;20032;-78
2021/08/27 10:51:40;;;;;;;13.27;5.32;;;743.30;2201.60;;;;;;5033971;28;20025;-80
2021/08/27 10:54:07;;;;;;;11.40;4.75;;;768.10;2201.60;;;;;;5032696;28;20021;-76
2021/08/27 10:56:43;;;;;;;9.73;5.00;;;768.20;2201.60;;;;;;5032899;28;20029;-78
2021/08/27 10:59:11;;;;;;;7.50;4.68;;;768.50;2201.60;;;;;;5032902;28;20120;-78
2021/08/27 11:01:39;;;;;;;6.25;4.82;;;768.40;2176.00;;;;;;5032694;28;20026;-78
2021/08/27 11:04:23;;;;;;;7.93;5.07;;;768.40;2201.60;;;;;;5032837;28;20384;-79
2021/08/27 11:07:04;;;;;;;5.95;4.80;;;768.50;2124.80;;;;;;5032229;28;20048;-78
2021/08/27 11:09:32;;;;;;;9.05;5.07;;;768.50;2124.80;;;;;;5032381;28;20080;-78
2021/08/27 11:12:24;;;;;;;9.30;5.13;;;768.70;2124.80;;;;;;5032688;28;20112;-77
2021/08/27 11:14:54;;;;;;;7.28;4.80;;;768.90;2124.80;;;;;;5032677;28;20033;-78
2021/08/27 11:17:20;;;;;;;5.97;4.80;;;768.70;2124.80;;;;;;5032417;28;20107;-77
2021/08/27 11:20:07;;;;;;;11.38;6.85;;;793.60;2150.40;;;;;;5033332;28;20393;-77
2021/08/27 11:22:33;;;;;;;16.40;6.38;;;793.70;2099.20;;;;;;5032831;28;20033;-77
2021/08/27 11:25:07;;;;;;;15.57;6.40;;;794.00;2099.20;;;;;;5029307;28;20487;-77
2021/08/27 11:27:35;;;;;;;8.07;5.32;;;794.10;2099.20;;;;;;5030694;28;20037;-77
2021/08/27 11:30:28;;;;;;;10.32;6.20;;;794.20;2073.60;;;;;;5030660;28;20535;-77
2021/08/27 11:32:55;;;;;;;10.32;6.85;;;794.30;2073.60;;;;;;5029157;28;20025;-78
2021/08/27 11:35:22;;;;;;;10.45;5.97;;;794.50;2073.60;;;;;;5063796;28;20120;-77
2021/08/27 11:37:59;;;;;;;7.47;5.63;;;794.50;2022.40;;;;;;5031795;28;20033;-77
2021/08/27 11:40:25;;;;;;;10.35;5.65;;;819.30;2048.00;;;;;;5030602;28;20464;-78
2021/08/27 11:42:56;;;;;;;7.03;5.68;;;819.40;2022.40;;;;;;5030759;28;20075;-77
2021/08/27 11:45:25;;;;;;;9.68;4.95;;;819.50;1945.60;;;;;;5061783;28;20030;-77
2021/08/27 11:47:53;;;;;;;8.32;5.00;;;819.70;1920.00;;;;;;5031654;28;20010;-78
2021/08/27 11:50:35;;;;;;;8.20;5.78;;;819.60;1996.80;;;;;;5028017;28;20111;-77
2021/08/27 11:53:01;;;;;;;;;;;819.50;1971.20;;;;;;5031188;28;20074;-77
2021/08/27 11:55:28;;;;;;;6.30;4.72;;;819.60;1971.20;;;;;;5030556;28;19936;-77
2021/08/27 11:58:00;;;;;;;8.10;5.43;;;794.20;1920.00;;;;;;5030273;28;20068;-78
2021/08/27 12:00:43;;;;;;;7.75;5.47;;;794.50;1971.20;;;;;;5032556;28;20032;-77
2021/08/27 12:03:11;;;;;;;6.28;5.40;;;819.30;1945.60;;;;;;5030526;28;20056;-77
2021/08/27 12:05:38;;;;;;;9.80;5.80;;;819.30;1945.60;;;;;;5030850;28;20033;-79
2021/08/27 12:08:15;;;;;;;11.82;6.03;;;819.50;1945.60;;;;;;5031143;28;20032;-78
2021/08/27 12:10:43;;;;;;;10.73;6.50;;;819.80;1920.00;;;;;;5030787;28;20030;-78